sensor_id;sensor_type;location;lat;lon;timestamp;P1;durP1;ratioP1;P2;durP2;ratioP2
74459;SDS011;62902;48.854;9.292;2022-09-09T00:00:11;3.72;;;1.08;;
74459;SDS011;62902;48.854;9.292;2022-09-09T00:02:38;4.05;;;1.10;;
74459;SDS011;62902;48.854;9.292;2022-09-09T00:05:19;5.15;;;1.15;;
74459;SDS011;62902;48.854;9.292;2022-09-09T00:08:04;4.15;;;1.13;;
74459;SDS011;62902;48.854;9.292;2022-09-09T00:10:35;4.38;;;1.50;;
74459;SDS011;62902;48.854;9.292;2022-09-09T00:13:11;6.70;;;1.35;;
74459;SDS011;62902;48.854;9.292;2022-09-09T00:21:37;3.97;;;1.10;;
74459;SDS011;62902;48.854;9.292;2022-09-09T00:24:16;5.32;;;1.42;;
74459;SDS011;62902;48.854;9.292;2022-09-09T00:26:53;4.63;;;1.10;;
74459;SDS011;62902;48.854;9.292;2022-09-09T00:29:38;2.80;;;1.00;;
74459;SDS011;62902;48.854;9.292;2022-09-09T00:32:14;3.63;;;1.10;;
74459;SDS011;62902;48.854;9.292;2022-09-09T00:34:56;4.63;;;1.58;;
74459;SDS011;62902;48.854;9.292;2022-09-09T00:37:26;4.32;;;1.17;;
74459;SDS011;62902;48.854;9.292;2022-09-09T00:39:54;6.47;;;1.30;;
74459;SDS011;62902;48.854;9.292;2022-09-09T00:47:50;4.18;;;0.95;;
74459;SDS011;62902;48.854;9.292;2022-09-09T00:56:19;4.75;;;1.25;;
74459;SDS011;62902;48.854;9.292;2022-09-09T00:58:51;2.65;;;0.70;;
74459;SDS011;62902;48.854;9.292;2022-09-09T01:01:26;3.95;;;1.20;;
74459;SDS011;62902;48.854;9.292;2022-09-09T01:03:53;4.45;;;1.02;;
74459;SDS011;62902;48.854;9.292;2022-09-09T01:06:22;4.15;;;0.95;;
74459;SDS011;62902;48.854;9.292;2022-09-09T01:14:43;4.63;;;1.20;;
74459;SDS011;62902;48.854;9.292;2022-09-09T01:22:57;3.53;;;0.95;;
74459;SDS011;62902;48.854;9.292;2022-09-09T01:28:19;3.53;;;1.10;;
74459;SDS011;62902;48.854;9.292;2022-09-09T01:30:57;5.78;;;1.10;;
74459;SDS011;62902;48.854;9.292;2022-09-09T01:33:29;3.20;;;1.30;;
74459;SDS011;62902;48.854;9.292;2022-09-09T01:36:00;3.25;;;1.13;;
74459;SDS011;62902;48.854;9.292;2022-09-09T01:38:36;4.90;;;1.02;;
74459;SDS011;62902;48.854;9.292;2022-09-09T01:41:03;3.85;;;1.15;;
74459;SDS011;62902;48.854;9.292;2022-09-09T01:43:42;3.08;;;0.93;;
74459;SDS011;62902;48.854;9.292;2022-09-09T01:46:09;5.00;;;1.13;;
74459;SDS011;62902;48.854;9.292;2022-09-09T01:48:37;3.67;;;0.90;;
74459;SDS011;62902;48.854;9.292;2022-09-09T01:51:08;7.72;;;1.45;;
74459;SDS011;62902;48.854;9.292;2022-09-09T01:53:37;5.30;;;1.13;;
74459;SDS011;62902;48.854;9.292;2022-09-09T01:56:18;5.07;;;1.10;;
74459;SDS011;62902;48.854;9.292;2022-09-09T02:01:27;4.88;;;2.00;;
74459;SDS011;62902;48.854;9.292;2022-09-09T02:04:20;7.03;;;2.28;;
74459;SDS011;62902;48.854;9.292;2022-09-09T02:06:55;5.30;;;2.28;;
74459;SDS011;62902;48.854;9.292;2022-09-09T02:09:27;4.05;;;1.67;;
74459;SDS011;62902;48.854;9.292;2022-09-09T02:11:59;6.43;;;1.63;;
74459;SDS011;62902;48.854;9.292;2022-09-09T02:14:49;3.78;;;1.10;;
74459;SDS011;62902;48.854;9.292;2022-09-09T02:17:26;6.93;;;1.60;;
74459;SDS011;62902;48.854;9.292;2022-09-09T02:20:10;7.10;;;2.58;;
74459;SDS011;62902;48.854;9.292;2022-09-09T02:22:44;4.43;;;1.40;;
74459;SDS011;62902;48.854;9.292;2022-09-09T02:25:14;5.72;;;1.63;;
74459;SDS011;62902;48.854;9.292;2022-09-09T02:27:43;3.53;;;1.00;;
74459;SDS011;62902;48.854;9.292;2022-09-09T02:30:12;3.58;;;1.10;;
74459;SDS011;62902;48.854;9.292;2022-09-09T02:32:45;4.10;;;1.00;;
74459;SDS011;62902;48.854;9.292;2022-09-09T02:35:15;5.30;;;1.10;;
74459;SDS011;62902;48.854;9.292;2022-09-09T02:37:45;3.33;;;0.90;;
74459;SDS011;62902;48.854;9.292;2022-09-09T02:40:15;3.58;;;1.00;;
74459;SDS011;62902;48.854;9.292;2022-09-09T02:42:47;2.28;;;0.70;;
74459;SDS011;62902;48.854;9.292;2022-09-09T02:45:18;2.83;;;0.77;;
74459;SDS011;62902;48.854;9.292;2022-09-09T02:50:49;4.22;;;1.02;;
74459;SDS011;62902;48.854;9.292;2022-09-09T02:53:35;7.30;;;1.33;;
74459;SDS011;62902;48.854;9.292;2022-09-09T02:56:14;4.57;;;1.38;;
74459;SDS011;62902;48.854;9.292;2022-09-09T02:58:44;4.93;;;1.10;;
74459;SDS011;62902;48.854;9.292;2022-09-09T03:03:39;5.40;;;0.98;;
74459;SDS011;62902;48.854;9.292;2022-09-09T03:06:12;5.72;;;1.98;;
74459;SDS011;62902;48.854;9.292;2022-09-09T03:08:39;7.45;;;2.13;;
74459;SDS011;62902;48.854;9.292;2022-09-09T03:11:07;4.70;;;1.88;;
74459;SDS011;62902;48.854;9.292;2022-09-09T03:13:36;9.00;;;1.92;;
74459;SDS011;62902;48.854;9.292;2022-09-09T03:16:04;4.65;;;1.80;;
74459;SDS011;62902;48.854;9.292;2022-09-09T03:18:37;6.65;;;2.05;;
74459;SDS011;62902;48.854;9.292;2022-09-09T03:21:04;5.07;;;1.30;;
74459;SDS011;62902;48.854;9.292;2022-09-09T03:23:31;5.90;;;1.92;;
74459;SDS011;62902;48.854;9.292;2022-09-09T03:26:00;4.45;;;1.60;;
74459;SDS011;62902;48.854;9.292;2022-09-09T03:28:38;3.88;;;1.05;;
74459;SDS011;62902;48.854;9.292;2022-09-09T03:31:05;2.95;;;1.10;;
74459;SDS011;62902;48.854;9.292;2022-09-09T03:33:37;4.45;;;1.30;;
74459;SDS011;62902;48.854;9.292;2022-09-09T03:36:05;5.57;;;1.60;;
74459;SDS011;62902;48.854;9.292;2022-09-09T03:38:34;3.92;;;1.30;;
74459;SDS011;62902;48.854;9.292;2022-09-09T03:41:01;6.40;;;1.73;;
74459;SDS011;62902;48.854;9.292;2022-09-09T03:43:29;5.00;;;1.40;;
74459;SDS011;62902;48.854;9.292;2022-09-09T03:45:56;3.42;;;1.23;;
74459;SDS011;62902;48.854;9.292;2022-09-09T03:48:25;5.75;;;1.20;;
74459;SDS011;62902;48.854;9.292;2022-09-09T03:50:55;3.25;;;1.15;;
74459;SDS011;62902;48.854;9.292;2022-09-09T03:53:24;4.05;;;1.23;;
74459;SDS011;62902;48.854;9.292;2022-09-09T03:55:53;5.35;;;1.30;;
74459;SDS011;62902;48.854;9.292;2022-09-09T03:58:23;4.30;;;1.20;;
74459;SDS011;62902;48.854;9.292;2022-09-09T04:00:58;4.65;;;1.10;;
74459;SDS011;62902;48.854;9.292;2022-09-09T04:03:42;4.15;;;1.00;;
74459;SDS011;62902;48.854;9.292;2022-09-09T04:06:09;2.80;;;0.80;;
74459;SDS011;62902;48.854;9.292;2022-09-09T04:08:37;4.32;;;1.30;;
74459;SDS011;62902;48.854;9.292;2022-09-09T04:11:05;5.72;;;1.80;;
74459;SDS011;62902;48.854;9.292;2022-09-09T04:13:34;5.93;;;1.85;;
74459;SDS011;62902;48.854;9.292;2022-09-09T04:16:01;2.88;;;1.20;;
74459;SDS011;62902;48.854;9.292;2022-09-09T04:18:30;3.20;;;0.90;;
74459;SDS011;62902;48.854;9.292;2022-09-09T04:23:26;4.57;;;0.90;;
74459;SDS011;62902;48.854;9.292;2022-09-09T04:25:57;3.08;;;0.90;;
74459;SDS011;62902;48.854;9.292;2022-09-09T04:28:26;2.75;;;1.10;;
74459;SDS011;62902;48.854;9.292;2022-09-09T04:30:54;4.00;;;1.13;;
74459;SDS011;62902;48.854;9.292;2022-09-09T04:33:23;2.92;;;1.00;;
74459;SDS011;62902;48.854;9.292;2022-09-09T04:35:53;4.50;;;1.02;;
74459;SDS011;62902;48.854;9.292;2022-09-09T04:38:21;5.47;;;1.30;;
74459;SDS011;62902;48.854;9.292;2022-09-09T04:40:50;5.93;;;1.25;;
74459;SDS011;62902;48.854;9.292;2022-09-09T04:43:18;5.32;;;1.00;;
74459;SDS011;62902;48.854;9.292;2022-09-09T04:45:50;4.00;;;1.05;;
74459;SDS011;62902;48.854;9.292;2022-09-09T04:48:20;3.88;;;0.95;;
74459;SDS011;62902;48.854;9.292;2022-09-09T04:50:58;3.63;;;0.98;;
74459;SDS011;62902;48.854;9.292;2022-09-09T04:53:26;4.43;;;1.10;;
74459;SDS011;62902;48.854;9.292;2022-09-09T04:56:02;5.28;;;1.15;;
74459;SDS011;62902;48.854;9.292;2022-09-09T04:58:38;6.75;;;2.03;;
74459;SDS011;62902;48.854;9.292;2022-09-09T05:01:10;4.57;;;1.00;;
74459;SDS011;62902;48.854;9.292;2022-09-09T05:03:43;6.25;;;0.95;;
74459;SDS011;62902;48.854;9.292;2022-09-09T05:06:16;3.13;;;1.00;;
74459;SDS011;62902;48.854;9.292;2022-09-09T05:08:45;4.15;;;0.85;;
74459;SDS011;62902;48.854;9.292;2022-09-09T05:11:19;3.85;;;1.00;;
74459;SDS011;62902;48.854;9.292;2022-09-09T05:13:49;2.03;;;0.85;;
74459;SDS011;62902;48.854;9.292;2022-09-09T05:16:17;6.85;;;1.20;;
74459;SDS011;62902;48.854;9.292;2022-09-09T05:18:45;3.90;;;1.10;;
74459;SDS011;62902;48.854;9.292;2022-09-09T05:21:16;4.68;;;1.15;;
74459;SDS011;62902;48.854;9.292;2022-09-09T05:23:44;1.95;;;0.98;;
74459;SDS011;62902;48.854;9.292;2022-09-09T05:26:15;4.20;;;1.20;;
74459;SDS011;62902;48.854;9.292;2022-09-09T05:28:45;4.28;;;1.20;;
74459;SDS011;62902;48.854;9.292;2022-09-09T05:31:13;2.88;;;1.05;;
74459;SDS011;62902;48.854;9.292;2022-09-09T05:33:43;4.60;;;1.10;;
74459;SDS011;62902;48.854;9.292;2022-09-09T05:36:14;3.72;;;1.02;;
74459;SDS011;62902;48.854;9.292;2022-09-09T05:38:46;5.53;;;1.25;;
74459;SDS011;62902;48.854;9.292;2022-09-09T05:43:42;5.28;;;1.05;;
74459;SDS011;62902;48.854;9.292;2022-09-09T05:46:12;4.55;;;0.95;;
74459;SDS011;62902;48.854;9.292;2022-09-09T05:48:51;7.13;;;1.60;;
74459;SDS011;62902;48.854;9.292;2022-09-09T05:51:24;4.25;;;1.38;;
74459;SDS011;62902;48.854;9.292;2022-09-09T05:53:55;6.72;;;0.90;;
74459;SDS011;62902;48.854;9.292;2022-09-09T05:56:28;5.80;;;1.20;;
74459;SDS011;62902;48.854;9.292;2022-09-09T05:58:56;3.38;;;1.30;;
74459;SDS011;62902;48.854;9.292;2022-09-09T06:03:50;4.95;;;1.33;;
74459;SDS011;62902;48.854;9.292;2022-09-09T06:06:20;5.85;;;1.20;;
74459;SDS011;62902;48.854;9.292;2022-09-09T06:08:54;6.05;;;1.17;;
74459;SDS011;62902;48.854;9.292;2022-09-09T06:11:26;4.85;;;1.30;;
74459;SDS011;62902;48.854;9.292;2022-09-09T06:13:58;3.75;;;1.17;;
74459;SDS011;62902;48.854;9.292;2022-09-09T06:16:28;5.03;;;1.27;;
74459;SDS011;62902;48.854;9.292;2022-09-09T06:18:56;4.15;;;1.10;;
74459;SDS011;62902;48.854;9.292;2022-09-09T06:21:28;5.20;;;1.23;;
74459;SDS011;62902;48.854;9.292;2022-09-09T06:24:06;4.55;;;1.40;;
74459;SDS011;62902;48.854;9.292;2022-09-09T06:26:37;5.32;;;1.73;;
74459;SDS011;62902;48.854;9.292;2022-09-09T06:29:10;4.47;;;1.20;;
74459;SDS011;62902;48.854;9.292;2022-09-09T06:31:37;5.88;;;1.30;;
74459;SDS011;62902;48.854;9.292;2022-09-09T06:34:10;3.42;;;1.10;;
74459;SDS011;62902;48.854;9.292;2022-09-09T06:36:40;5.70;;;1.10;;
74459;SDS011;62902;48.854;9.292;2022-09-09T06:39:07;6.80;;;1.52;;
74459;SDS011;62902;48.854;9.292;2022-09-09T06:41:40;4.60;;;1.23;;
74459;SDS011;62902;48.854;9.292;2022-09-09T06:44:13;5.63;;;1.38;;
74459;SDS011;62902;48.854;9.292;2022-09-09T06:46:41;5.43;;;1.30;;
74459;SDS011;62902;48.854;9.292;2022-09-09T06:49:09;4.93;;;1.00;;
74459;SDS011;62902;48.854;9.292;2022-09-09T06:51:37;11.18;;;1.20;;
74459;SDS011;62902;48.854;9.292;2022-09-09T06:54:10;8.02;;;1.30;;
74459;SDS011;62902;48.854;9.292;2022-09-09T06:56:41;6.97;;;1.17;;
74459;SDS011;62902;48.854;9.292;2022-09-09T06:59:15;5.90;;;1.40;;
74459;SDS011;62902;48.854;9.292;2022-09-09T07:01:44;5.80;;;1.10;;
74459;SDS011;62902;48.854;9.292;2022-09-09T07:04:12;8.43;;;1.33;;
74459;SDS011;62902;48.854;9.292;2022-09-09T07:06:43;5.40;;;1.02;;
74459;SDS011;62902;48.854;9.292;2022-09-09T07:09:15;4.95;;;1.30;;
74459;SDS011;62902;48.854;9.292;2022-09-09T07:11:48;4.43;;;1.13;;
74459;SDS011;62902;48.854;9.292;2022-09-09T07:14:18;5.78;;;1.10;;
74459;SDS011;62902;48.854;9.292;2022-09-09T07:16:48;2.88;;;1.02;;
74459;SDS011;62902;48.854;9.292;2022-09-09T07:19:16;6.55;;;1.42;;
74459;SDS011;62902;48.854;9.292;2022-09-09T07:21:45;6.65;;;1.10;;
74459;SDS011;62902;48.854;9.292;2022-09-09T07:24:16;3.10;;;0.93;;
74459;SDS011;62902;48.854;9.292;2022-09-09T07:26:43;6.47;;;1.20;;
74459;SDS011;62902;48.854;9.292;2022-09-09T07:29:11;3.22;;;0.90;;
74459;SDS011;62902;48.854;9.292;2022-09-09T07:31:46;4.28;;;1.10;;
74459;SDS011;62902;48.854;9.292;2022-09-09T07:34:18;2.80;;;1.00;;
74459;SDS011;62902;48.854;9.292;2022-09-09T07:36:45;7.50;;;0.93;;
74459;SDS011;62902;48.854;9.292;2022-09-09T07:39:13;3.70;;;1.20;;
74459;SDS011;62902;48.854;9.292;2022-09-09T07:41:46;3.50;;;1.08;;
74459;SDS011;62902;48.854;9.292;2022-09-09T07:44:17;5.43;;;1.10;;
74459;SDS011;62902;48.854;9.292;2022-09-09T07:46:50;5.95;;;1.05;;
74459;SDS011;62902;48.854;9.292;2022-09-09T07:49:21;4.95;;;1.20;;
74459;SDS011;62902;48.854;9.292;2022-09-09T07:51:58;5.35;;;0.90;;
74459;SDS011;62902;48.854;9.292;2022-09-09T07:54:25;3.33;;;0.80;;
74459;SDS011;62902;48.854;9.292;2022-09-09T07:56:52;5.22;;;1.17;;
74459;SDS011;62902;48.854;9.292;2022-09-09T07:59:22;4.78;;;1.20;;
74459;SDS011;62902;48.854;9.292;2022-09-09T08:01:51;2.17;;;0.70;;
74459;SDS011;62902;48.854;9.292;2022-09-09T08:04:25;4.75;;;0.85;;
74459;SDS011;62902;48.854;9.292;2022-09-09T08:06:53;8.48;;;1.25;;
74459;SDS011;62902;48.854;9.292;2022-09-09T08:09:23;2.97;;;0.88;;
74459;SDS011;62902;48.854;9.292;2022-09-09T08:11:55;4.93;;;1.10;;
74459;SDS011;62902;48.854;9.292;2022-09-09T08:14:23;4.35;;;1.17;;
74459;SDS011;62902;48.854;9.292;2022-09-09T08:16:50;3.70;;;1.20;;
74459;SDS011;62902;48.854;9.292;2022-09-09T08:19:22;3.20;;;0.88;;
74459;SDS011;62902;48.854;9.292;2022-09-09T08:21:50;5.20;;;1.33;;
74459;SDS011;62902;48.854;9.292;2022-09-09T08:24:17;5.05;;;1.00;;
74459;SDS011;62902;48.854;9.292;2022-09-09T08:26:48;7.47;;;1.00;;
74459;SDS011;62902;48.854;9.292;2022-09-09T08:29:18;5.40;;;1.20;;
74459;SDS011;62902;48.854;9.292;2022-09-09T08:31:49;5.43;;;1.10;;
74459;SDS011;62902;48.854;9.292;2022-09-09T08:34:18;3.60;;;1.00;;
74459;SDS011;62902;48.854;9.292;2022-09-09T08:36:48;4.78;;;0.95;;
74459;SDS011;62902;48.854;9.292;2022-09-09T08:39:16;4.57;;;1.10;;
74459;SDS011;62902;48.854;9.292;2022-09-09T08:47:05;6.55;;;1.58;;
74459;SDS011;62902;48.854;9.292;2022-09-09T08:52:12;4.30;;;1.00;;
74459;SDS011;62902;48.854;9.292;2022-09-09T08:57:40;4.00;;;0.77;;
74459;SDS011;62902;48.854;9.292;2022-09-09T09:00:09;3.33;;;0.80;;
74459;SDS011;62902;48.854;9.292;2022-09-09T09:02:48;5.05;;;1.20;;
74459;SDS011;62902;48.854;9.292;2022-09-09T09:05:37;5.03;;;1.20;;
74459;SDS011;62902;48.854;9.292;2022-09-09T09:08:25;5.55;;;1.10;;
74459;SDS011;62902;48.854;9.292;2022-09-09T09:10:56;4.93;;;1.58;;
74459;SDS011;62902;48.854;9.292;2022-09-09T09:18:53;6.22;;;1.15;;
74459;SDS011;62902;48.854;9.292;2022-09-09T09:21:34;6.50;;;1.00;;
74459;SDS011;62902;48.854;9.292;2022-09-09T09:24:06;4.47;;;0.70;;
74459;SDS011;62902;48.854;9.292;2022-09-09T09:26:40;4.43;;;0.93;;
74459;SDS011;62902;48.854;9.292;2022-09-09T09:29:13;3.70;;;0.90;;
74459;SDS011;62902;48.854;9.292;2022-09-09T09:31:55;4.72;;;1.17;;
74459;SDS011;62902;48.854;9.292;2022-09-09T09:34:24;5.78;;;0.95;;
74459;SDS011;62902;48.854;9.292;2022-09-09T09:36:53;2.90;;;0.63;;
74459;SDS011;62902;48.854;9.292;2022-09-09T09:39:30;8.02;;;0.98;;
74459;SDS011;62902;48.854;9.292;2022-09-09T09:42:17;2.58;;;0.65;;
74459;SDS011;62902;48.854;9.292;2022-09-09T09:44:52;3.13;;;0.68;;
74459;SDS011;62902;48.854;9.292;2022-09-09T09:47:21;5.10;;;0.70;;
74459;SDS011;62902;48.854;9.292;2022-09-09T09:50:00;4.13;;;0.80;;
74459;SDS011;62902;48.854;9.292;2022-09-09T09:52:32;3.17;;;0.57;;
74459;SDS011;62902;48.854;9.292;2022-09-09T09:55:02;3.80;;;0.75;;
74459;SDS011;62902;48.854;9.292;2022-09-09T09:57:33;7.93;;;0.90;;
74459;SDS011;62902;48.854;9.292;2022-09-09T10:00:13;3.67;;;0.68;;
74459;SDS011;62902;48.854;9.292;2022-09-09T10:02:51;2.47;;;0.47;;
74459;SDS011;62902;48.854;9.292;2022-09-09T10:05:24;2.95;;;0.47;;
74459;SDS011;62902;48.854;9.292;2022-09-09T10:08:12;2.45;;;0.40;;
74459;SDS011;62902;48.854;9.292;2022-09-09T10:10:43;2.50;;;0.60;;
74459;SDS011;62902;48.854;9.292;2022-09-09T10:13:33;3.88;;;0.70;;
74459;SDS011;62902;48.854;9.292;2022-09-09T10:19:00;2.65;;;0.50;;
74459;SDS011;62902;48.854;9.292;2022-09-09T10:21:52;3.55;;;0.50;;
74459;SDS011;62902;48.854;9.292;2022-09-09T10:26:58;2.53;;;0.50;;
74459;SDS011;62902;48.854;9.292;2022-09-09T10:29:38;4.90;;;0.75;;
74459;SDS011;62902;48.854;9.292;2022-09-09T10:35:27;2.00;;;0.60;;
74459;SDS011;62902;48.854;9.292;2022-09-09T10:37:53;4.57;;;0.70;;
74459;SDS011;62902;48.854;9.292;2022-09-09T10:46:36;7.03;;;0.90;;
74459;SDS011;62902;48.854;9.292;2022-09-09T10:49:45;5.18;;;0.70;;
74459;SDS011;62902;48.854;9.292;2022-09-09T10:55:02;2.35;;;0.80;;
74459;SDS011;62902;48.854;9.292;2022-09-09T10:57:40;5.35;;;1.00;;
74459;SDS011;62902;48.854;9.292;2022-09-09T11:03:15;8.07;;;0.82;;
74459;SDS011;62902;48.854;9.292;2022-09-09T11:05:46;5.82;;;0.80;;
74459;SDS011;62902;48.854;9.292;2022-09-09T11:08:20;3.88;;;0.88;;
74459;SDS011;62902;48.854;9.292;2022-09-09T11:13:23;2.83;;;0.70;;
74459;SDS011;62902;48.854;9.292;2022-09-09T11:19:01;4.57;;;0.77;;
74459;SDS011;62902;48.854;9.292;2022-09-09T11:21:41;2.83;;;0.70;;
74459;SDS011;62902;48.854;9.292;2022-09-09T11:26:55;5.70;;;0.98;;
74459;SDS011;62902;48.854;9.292;2022-09-09T11:29:40;4.65;;;0.57;;
74459;SDS011;62902;48.854;9.292;2022-09-09T11:32:21;9.63;;;1.15;;
74459;SDS011;62902;48.854;9.292;2022-09-09T11:38:03;10.50;;;1.70;;
74459;SDS011;62902;48.854;9.292;2022-09-09T11:40:42;11.15;;;2.00;;
74459;SDS011;62902;48.854;9.292;2022-09-09T11:43:23;10.63;;;1.75;;
74459;SDS011;62902;48.854;9.292;2022-09-09T11:51:09;6.97;;;1.65;;
74459;SDS011;62902;48.854;9.292;2022-09-09T11:56:32;4.57;;;1.05;;
74459;SDS011;62902;48.854;9.292;2022-09-09T11:59:02;7.05;;;1.75;;
74459;SDS011;62902;48.854;9.292;2022-09-09T12:01:44;4.57;;;1.50;;
74459;SDS011;62902;48.854;9.292;2022-09-09T12:04:13;4.93;;;1.20;;
74459;SDS011;62902;48.854;9.292;2022-09-09T12:06:51;4.88;;;1.20;;
74459;SDS011;62902;48.854;9.292;2022-09-09T12:14:43;6.20;;;1.23;;
74459;SDS011;62902;48.854;9.292;2022-09-09T12:17:21;6.07;;;0.90;;
74459;SDS011;62902;48.854;9.292;2022-09-09T12:19:59;4.90;;;0.70;;
74459;SDS011;62902;48.854;9.292;2022-09-09T12:34:39;0.85;;;0.30;;
74459;SDS011;62902;48.854;9.292;2022-09-09T12:37:12;1.73;;;0.45;;
74459;SDS011;62902;48.854;9.292;2022-09-09T12:40:00;2.30;;;0.63;;
74459;SDS011;62902;48.854;9.292;2022-09-09T12:42:29;1.33;;;0.50;;
74459;SDS011;62902;48.854;9.292;2022-09-09T12:44:57;3.15;;;0.50;;
74459;SDS011;62902;48.854;9.292;2022-09-09T12:48:11;2.95;;;0.52;;
74459;SDS011;62902;48.854;9.292;2022-09-09T12:52:58;2.55;;;0.43;;
74459;SDS011;62902;48.854;9.292;2022-09-09T12:55:35;2.75;;;0.40;;
74459;SDS011;62902;48.854;9.292;2022-09-09T12:58:02;1.02;;;0.40;;
74459;SDS011;62902;48.854;9.292;2022-09-09T13:00:32;2.78;;;0.50;;
74459;SDS011;62902;48.854;9.292;2022-09-09T13:03:01;3.78;;;0.52;;
74459;SDS011;62902;48.854;9.292;2022-09-09T13:05:35;2.83;;;0.50;;
74459;SDS011;62902;48.854;9.292;2022-09-09T13:08:08;1.30;;;0.35;;
74459;SDS011;62902;48.854;9.292;2022-09-09T13:11:19;2.45;;;0.52;;
74459;SDS011;62902;48.854;9.292;2022-09-09T13:13:38;1.48;;;0.47;;
74459;SDS011;62902;48.854;9.292;2022-09-09T13:16:07;2.05;;;0.40;;
74459;SDS011;62902;48.854;9.292;2022-09-09T13:18:47;3.90;;;0.50;;
74459;SDS011;62902;48.854;9.292;2022-09-09T13:21:14;4.88;;;0.30;;
74459;SDS011;62902;48.854;9.292;2022-09-09T13:23:41;3.88;;;0.60;;
74459;SDS011;62902;48.854;9.292;2022-09-09T13:26:24;4.43;;;0.52;;
74459;SDS011;62902;48.854;9.292;2022-09-09T13:28:53;2.25;;;0.30;;
74459;SDS011;62902;48.854;9.292;2022-09-09T13:31:24;1.35;;;0.40;;
74459;SDS011;62902;48.854;9.292;2022-09-09T13:33:54;3.47;;;0.50;;
74459;SDS011;62902;48.854;9.292;2022-09-09T13:38:59;1.95;;;0.32;;
74459;SDS011;62902;48.854;9.292;2022-09-09T13:44:00;2.38;;;0.45;;
74459;SDS011;62902;48.854;9.292;2022-09-09T13:46:33;4.03;;;0.60;;
74459;SDS011;62902;48.854;9.292;2022-09-09T13:49:01;2.78;;;0.40;;
74459;SDS011;62902;48.854;9.292;2022-09-09T13:51:44;1.10;;;0.40;;
74459;SDS011;62902;48.854;9.292;2022-09-09T13:54:17;4.28;;;0.52;;
74459;SDS011;62902;48.854;9.292;2022-09-09T13:56:45;2.42;;;0.47;;
74459;SDS011;62902;48.854;9.292;2022-09-09T13:59:13;0.98;;;0.45;;
74459;SDS011;62902;48.854;9.292;2022-09-09T14:01:41;2.53;;;0.65;;
74459;SDS011;62902;48.854;9.292;2022-09-09T14:04:08;3.22;;;0.50;;
74459;SDS011;62902;48.854;9.292;2022-09-09T14:06:37;2.28;;;0.40;;
74459;SDS011;62902;48.854;9.292;2022-09-09T14:09:10;2.60;;;0.40;;
74459;SDS011;62902;48.854;9.292;2022-09-09T14:11:38;4.13;;;0.68;;
74459;SDS011;62902;48.854;9.292;2022-09-09T14:14:04;2.78;;;0.60;;
74459;SDS011;62902;48.854;9.292;2022-09-09T14:16:31;1.17;;;0.40;;
74459;SDS011;62902;48.854;9.292;2022-09-09T14:18:58;2.35;;;0.38;;
74459;SDS011;62902;48.854;9.292;2022-09-09T14:21:25;2.45;;;0.40;;
74459;SDS011;62902;48.854;9.292;2022-09-09T14:23:52;2.78;;;0.60;;
74459;SDS011;62902;48.854;9.292;2022-09-09T14:26:22;2.85;;;0.47;;
74459;SDS011;62902;48.854;9.292;2022-09-09T14:28:49;2.75;;;0.50;;
74459;SDS011;62902;48.854;9.292;2022-09-09T14:31:21;4.55;;;0.60;;
74459;SDS011;62902;48.854;9.292;2022-09-09T14:33:48;1.98;;;0.73;;
74459;SDS011;62902;48.854;9.292;2022-09-09T14:36:14;2.53;;;0.50;;
74459;SDS011;62902;48.854;9.292;2022-09-09T14:38:41;2.92;;;0.40;;
74459;SDS011;62902;48.854;9.292;2022-09-09T14:41:09;2.25;;;0.47;;
74459;SDS011;62902;48.854;9.292;2022-09-09T14:43:37;1.65;;;0.50;;
74459;SDS011;62902;48.854;9.292;2022-09-09T14:46:09;1.58;;;0.40;;
74459;SDS011;62902;48.854;9.292;2022-09-09T14:48:37;2.85;;;0.50;;
74459;SDS011;62902;48.854;9.292;2022-09-09T14:51:40;1.45;;;0.30;;
74459;SDS011;62902;48.854;9.292;2022-09-09T14:54:00;2.85;;;0.40;;
74459;SDS011;62902;48.854;9.292;2022-09-09T14:56:29;1.15;;;0.30;;
74459;SDS011;62902;48.854;9.292;2022-09-09T14:58:58;1.83;;;0.30;;
74459;SDS011;62902;48.854;9.292;2022-09-09T15:01:27;1.38;;;0.32;;
74459;SDS011;62902;48.854;9.292;2022-09-09T15:03:56;2.72;;;0.40;;
74459;SDS011;62902;48.854;9.292;2022-09-09T15:06:26;2.72;;;0.40;;
74459;SDS011;62902;48.854;9.292;2022-09-09T15:08:54;2.28;;;0.73;;
74459;SDS011;62902;48.854;9.292;2022-09-09T15:11:25;1.98;;;0.32;;
74459;SDS011;62902;48.854;9.292;2022-09-09T15:13:54;2.58;;;0.40;;
74459;SDS011;62902;48.854;9.292;2022-09-09T15:16:22;2.50;;;0.50;;
74459;SDS011;62902;48.854;9.292;2022-09-09T15:18:51;2.47;;;0.40;;
74459;SDS011;62902;48.854;9.292;2022-09-09T15:21:21;2.72;;;0.40;;
74459;SDS011;62902;48.854;9.292;2022-09-09T15:23:49;2.03;;;0.47;;
74459;SDS011;62902;48.854;9.292;2022-09-09T15:26:16;2.80;;;0.40;;
74459;SDS011;62902;48.854;9.292;2022-09-09T15:28:43;0.95;;;0.22;;
74459;SDS011;62902;48.854;9.292;2022-09-09T15:31:12;1.23;;;0.30;;
74459;SDS011;62902;48.854;9.292;2022-09-09T15:33:40;2.13;;;0.30;;
74459;SDS011;62902;48.854;9.292;2022-09-09T15:36:14;3.75;;;0.55;;
74459;SDS011;62902;48.854;9.292;2022-09-09T15:38:48;2.78;;;0.30;;
74459;SDS011;62902;48.854;9.292;2022-09-09T15:41:15;0.47;;;0.20;;
74459;SDS011;62902;48.854;9.292;2022-09-09T15:46:31;2.40;;;0.50;;
74459;SDS011;62902;48.854;9.292;2022-09-09T15:49:04;1.85;;;0.30;;
74459;SDS011;62902;48.854;9.292;2022-09-09T15:51:31;1.40;;;0.30;;
74459;SDS011;62902;48.854;9.292;2022-09-09T15:54:14;2.83;;;0.47;;
74459;SDS011;62902;48.854;9.292;2022-09-09T15:56:43;2.33;;;0.40;;
74459;SDS011;62902;48.854;9.292;2022-09-09T15:59:11;3.90;;;0.30;;
74459;SDS011;62902;48.854;9.292;2022-09-09T16:01:38;2.63;;;0.25;;
74459;SDS011;62902;48.854;9.292;2022-09-09T16:04:08;1.45;;;0.28;;
74459;SDS011;62902;48.854;9.292;2022-09-09T16:06:36;4.25;;;0.30;;
74459;SDS011;62902;48.854;9.292;2022-09-09T16:09:03;2.22;;;0.47;;
74459;SDS011;62902;48.854;9.292;2022-09-09T16:11:32;2.15;;;0.38;;
74459;SDS011;62902;48.854;9.292;2022-09-09T16:14:00;1.17;;;0.30;;
74459;SDS011;62902;48.854;9.292;2022-09-09T16:16:28;2.50;;;0.30;;
74459;SDS011;62902;48.854;9.292;2022-09-09T16:18:56;2.75;;;0.35;;
74459;SDS011;62902;48.854;9.292;2022-09-09T16:21:25;3.53;;;0.40;;
74459;SDS011;62902;48.854;9.292;2022-09-09T16:23:56;2.17;;;0.30;;
74459;SDS011;62902;48.854;9.292;2022-09-09T16:26:25;4.32;;;0.47;;
74459;SDS011;62902;48.854;9.292;2022-09-09T16:28:53;1.13;;;0.38;;
74459;SDS011;62902;48.854;9.292;2022-09-09T16:31:25;2.53;;;0.45;;
74459;SDS011;62902;48.854;9.292;2022-09-09T16:33:53;2.20;;;0.40;;
74459;SDS011;62902;48.854;9.292;2022-09-09T16:36:21;2.60;;;0.45;;
74459;SDS011;62902;48.854;9.292;2022-09-09T16:38:55;4.35;;;0.28;;
74459;SDS011;62902;48.854;9.292;2022-09-09T16:41:24;7.75;;;1.35;;
74459;SDS011;62902;48.854;9.292;2022-09-09T16:43:52;3.10;;;0.40;;
74459;SDS011;62902;48.854;9.292;2022-09-09T16:46:21;1.60;;;0.25;;
74459;SDS011;62902;48.854;9.292;2022-09-09T16:48:50;1.38;;;0.20;;
74459;SDS011;62902;48.854;9.292;2022-09-09T16:51:18;1.23;;;0.15;;
74459;SDS011;62902;48.854;9.292;2022-09-09T16:53:52;2.05;;;0.30;;
74459;SDS011;62902;48.854;9.292;2022-09-09T16:56:24;0.40;;;0.10;;
74459;SDS011;62902;48.854;9.292;2022-09-09T16:58:53;1.38;;;0.20;;
74459;SDS011;62902;48.854;9.292;2022-09-09T17:01:24;1.52;;;0.20;;
74459;SDS011;62902;48.854;9.292;2022-09-09T17:03:56;4.03;;;0.20;;
74459;SDS011;62902;48.854;9.292;2022-09-09T17:06:27;1.88;;;0.40;;
74459;SDS011;62902;48.854;9.292;2022-09-09T17:08:59;1.67;;;0.30;;
74459;SDS011;62902;48.854;9.292;2022-09-09T17:11:28;1.00;;;0.20;;
74459;SDS011;62902;48.854;9.292;2022-09-09T17:13:55;1.40;;;0.20;;
74459;SDS011;62902;48.854;9.292;2022-09-09T17:16:25;1.60;;;0.38;;
74459;SDS011;62902;48.854;9.292;2022-09-09T17:18:54;1.50;;;0.30;;
74459;SDS011;62902;48.854;9.292;2022-09-09T17:21:22;0.50;;;0.20;;
74459;SDS011;62902;48.854;9.292;2022-09-09T17:23:51;4.00;;;0.43;;
74459;SDS011;62902;48.854;9.292;2022-09-09T17:26:20;1.00;;;0.30;;